createdAt,value
2023-04-16T00:00:25.972Z,25.83
2023-04-16T00:02:52.867Z,25.23
2023-04-16T00:05:19.978Z,22.50
2023-04-16T00:07:46.958Z,20.33
2023-04-16T00:10:14.409Z,24.83
2023-04-16T00:12:41.489Z,24.98
2023-04-16T00:15:08.683Z,23.92
2023-04-16T00:17:35.789Z,25.13
2023-04-16T00:20:02.706Z,23.48
2023-04-16T00:22:29.522Z,25.55
2023-04-16T00:24:57.104Z,25.48
2023-04-16T00:27:24.193Z,23.58
2023-04-16T00:29:50.950Z,25.98
2023-04-16T00:32:20.676Z,24.95
2023-04-16T00:34:47.848Z,24.40
2023-04-16T00:37:14.772Z,24.25
2023-04-16T00:39:41.528Z,25.60
2023-04-16T00:42:08.437Z,23.90
2023-04-16T00:44:36.037Z,24.35
2023-04-16T00:47:04.011Z,24.13
2023-04-16T00:49:31.763Z,25.02
2023-04-16T00:52:00.005Z,27.83
2023-04-16T00:54:26.815Z,27.70
2023-04-16T00:56:54.244Z,27.00
2023-04-16T00:59:23.359Z,24.77
2023-04-16T01:01:53.346Z,26.42
2023-04-16T01:04:21.697Z,26.05
2023-04-16T01:06:48.813Z,24.85
2023-04-16T01:09:16.840Z,23.70
2023-04-16T01:11:43.962Z,26.25
2023-04-16T01:14:11.085Z,25.10
2023-04-16T01:16:38.238Z,24.52
2023-04-16T01:19:06.476Z,24.95
2023-04-16T01:21:33.258Z,25.13
2023-04-16T01:24:05.948Z,20.80
2023-04-16T01:26:33.661Z,23.52
2023-04-16T01:29:00.616Z,22.05
2023-04-16T01:31:27.540Z,22.05
2023-04-16T01:34:07.392Z,21.73
2023-04-16T01:36:35.188Z,22.88
2023-04-16T01:39:02.217Z,22.15
2023-04-16T01:41:31.262Z,22.95
2023-04-16T01:43:58.030Z,21.65
2023-04-16T01:46:31.649Z,20.45
2023-04-16T01:48:58.923Z,19.25
2023-04-16T01:51:27.155Z,20.17
2023-04-16T01:53:54.775Z,21.20
2023-04-16T01:56:21.650Z,21.85
2023-04-16T01:58:48.596Z,20.85
2023-04-16T02:01:17.456Z,20.92
2023-04-16T02:03:46.014Z,21.40
2023-04-16T02:06:12.950Z,20.67
2023-04-16T02:08:39.929Z,21.05
2023-04-16T02:11:07.556Z,21.52
2023-04-16T02:13:34.970Z,20.67
2023-04-16T02:16:02.642Z,21.38
2023-04-16T02:18:40.980Z,18.55
2023-04-16T02:21:08.468Z,23.13
2023-04-16T02:23:35.538Z,20.08
2023-04-16T02:26:03.563Z,18.35
2023-04-16T02:28:30.902Z,17.30
2023-04-16T02:30:57.828Z,18.40
2023-04-16T02:33:26.708Z,20.73
2023-04-16T02:36:00.070Z,18.23
2023-04-16T02:38:26.976Z,19.73
2023-04-16T02:40:54.310Z,18.20
2023-04-16T02:43:21.128Z,18.38
2023-04-16T02:45:47.967Z,18.75
2023-04-16T02:48:15.353Z,18.58
2023-04-16T02:50:42.438Z,17.42
2023-04-16T02:53:10.620Z,18.35
2023-04-16T02:55:37.430Z,18.42
2023-04-16T02:58:04.388Z,16.00
2023-04-16T03:00:31.160Z,16.27
2023-04-16T03:02:58.134Z,16.15
2023-04-16T03:05:25.264Z,17.17
2023-04-16T03:07:56.492Z,18.85
2023-04-16T03:10:24.118Z,14.73
2023-04-16T03:12:51.136Z,14.60
2023-04-16T03:15:18.088Z,17.60
2023-04-16T03:17:44.919Z,15.38
2023-04-16T03:20:12.136Z,17.42
2023-04-16T03:22:39.493Z,14.57
2023-04-16T03:25:07.865Z,17.25
2023-04-16T03:27:35.474Z,17.70
2023-04-16T03:30:03.258Z,15.07
2023-04-16T03:32:31.273Z,16.00
2023-04-16T03:34:58.219Z,13.13
2023-04-16T03:37:25.692Z,14.35
2023-04-16T03:39:52.761Z,16.05
2023-04-16T03:42:19.580Z,15.15
2023-04-16T03:44:46.493Z,15.23
2023-04-16T03:47:14.813Z,16.02
2023-04-16T03:49:41.794Z,15.50
2023-04-16T03:52:08.598Z,16.58
2023-04-16T03:54:35.511Z,16.42
2023-04-16T03:57:14.556Z,15.88
2023-04-16T03:59:41.429Z,15.82
2023-04-16T04:02:08.261Z,17.83
2023-04-16T04:04:35.316Z,16.38
2023-04-16T04:07:03.018Z,16.65
2023-04-16T04:09:29.854Z,18.42
2023-04-16T04:11:56.632Z,17.55
2023-04-16T04:14:23.543Z,16.75
2023-04-16T04:16:50.468Z,15.27
2023-04-16T04:19:17.324Z,16.13
2023-04-16T04:21:44.287Z,15.65
2023-04-16T04:24:11.274Z,16.90
2023-04-16T04:26:38.152Z,18.25
2023-04-16T04:29:05.038Z,17.88
2023-04-16T04:31:31.986Z,16.98
2023-04-16T04:33:58.997Z,18.60
2023-04-16T04:36:27.387Z,16.40
2023-04-16T04:38:54.824Z,17.63
2023-04-16T04:41:22.453Z,16.50
2023-04-16T04:43:49.305Z,16.95
2023-04-16T04:46:16.714Z,20.20
2023-04-16T04:48:43.700Z,20.05
2023-04-16T04:51:10.874Z,17.65
2023-04-16T04:53:37.720Z,18.75
2023-04-16T04:56:12.157Z,18.98
2023-04-16T04:58:41.328Z,19.30
2023-04-16T05:01:08.348Z,21.52
2023-04-16T05:03:35.486Z,16.58
2023-04-16T05:06:02.324Z,15.63
2023-04-16T05:08:29.206Z,18.27
2023-04-16T05:10:55.950Z,17.35
2023-04-16T05:13:22.749Z,19.83
2023-04-16T05:15:49.550Z,16.98
2023-04-16T05:18:16.529Z,16.25
2023-04-16T05:20:43.331Z,19.33
2023-04-16T05:23:10.183Z,19.00
2023-04-16T05:25:36.949Z,17.23
2023-04-16T05:28:04.028Z,17.48
2023-04-16T05:30:31.005Z,18.42
2023-04-16T05:32:57.935Z,19.90
2023-04-16T05:35:24.678Z,18.70
2023-04-16T05:37:51.489Z,20.30
2023-04-16T05:40:18.433Z,19.75
2023-04-16T05:42:45.475Z,18.90
2023-04-16T05:45:12.365Z,19.05
2023-04-16T05:47:39.303Z,20.30
2023-04-16T05:50:06.726Z,18.42
2023-04-16T05:52:33.561Z,17.23
2023-04-16T05:55:01.678Z,18.35
2023-04-16T05:57:29.551Z,17.83
2023-04-16T05:59:56.348Z,19.45
2023-04-16T06:02:23.544Z,17.77
2023-04-16T06:04:50.358Z,17.55
2023-04-16T06:07:17.568Z,20.35
2023-04-16T06:09:45.610Z,19.27
2023-04-16T06:12:12.985Z,19.63
2023-04-16T06:14:39.954Z,22.08
2023-04-16T06:17:07.212Z,20.83
2023-04-16T06:19:34.056Z,20.08
2023-04-16T06:22:01.424Z,20.40
2023-04-16T06:24:28.420Z,19.30
2023-04-16T06:26:55.701Z,18.15
2023-04-16T06:29:30.461Z,18.98
2023-04-16T06:32:04.686Z,21.17
2023-04-16T06:34:31.793Z,20.70
2023-04-16T06:36:58.702Z,17.60
2023-04-16T06:39:25.718Z,20.02
2023-04-16T06:41:52.684Z,18.17
2023-04-16T06:44:19.435Z,18.42
2023-04-16T06:46:46.276Z,19.52
2023-04-16T06:49:13.299Z,21.90
2023-04-16T06:51:40.296Z,19.85
2023-04-16T06:54:07.231Z,19.90
2023-04-16T06:56:34.224Z,16.45
2023-04-16T06:59:01.013Z,16.63
2023-04-16T07:01:28.792Z,20.70
2023-04-16T07:03:55.865Z,18.15
2023-04-16T07:06:22.812Z,17.63
2023-04-16T07:08:49.687Z,19.17
2023-04-16T07:11:17.212Z,19.40
2023-04-16T07:13:44.096Z,20.27
2023-04-16T07:16:11.016Z,18.83
2023-04-16T07:18:38.019Z,17.88
2023-04-16T07:21:05.049Z,16.58
2023-04-16T07:23:32.062Z,20.98
2023-04-16T07:25:59.100Z,18.90
2023-04-16T07:28:26.377Z,16.75
2023-04-16T07:30:53.236Z,17.60
2023-04-16T07:33:20.118Z,17.40
2023-04-16T07:35:47.298Z,17.20
2023-04-16T07:38:14.774Z,19.48
2023-04-16T07:40:42.086Z,18.08
2023-04-16T07:43:09.523Z,20.42
2023-04-16T07:45:36.438Z,17.75
2023-04-16T07:48:03.419Z,16.90
2023-04-16T07:50:30.324Z,19.38
2023-04-16T07:52:57.104Z,19.85
2023-04-16T07:55:24.020Z,21.10
2023-04-16T07:57:50.770Z,19.23
2023-04-16T08:00:17.918Z,20.00
2023-04-16T08:02:45.276Z,19.30
2023-04-16T08:05:13.347Z,19.88
2023-04-16T08:07:40.259Z,17.13
2023-04-16T08:10:08.193Z,18.08
2023-04-16T08:12:35.363Z,16.73
2023-04-16T08:15:02.294Z,15.73
2023-04-16T08:17:30.094Z,14.40
2023-04-16T08:19:57.118Z,16.80
2023-04-16T08:22:23.961Z,17.15
2023-04-16T08:24:50.890Z,19.90
2023-04-16T08:27:19.685Z,15.07
2023-04-16T08:29:47.612Z,14.90
2023-04-16T08:32:14.514Z,14.63
2023-04-16T08:34:42.403Z,14.05
2023-04-16T08:37:09.624Z,15.43
2023-04-16T08:39:36.698Z,14.52
2023-04-16T08:42:11.171Z,14.55
2023-04-16T08:44:47.845Z,12.13
2023-04-16T08:47:16.371Z,11.43
2023-04-16T08:49:45.772Z,12.48
2023-04-16T08:52:18.533Z,15.25
2023-04-16T08:55:02.988Z,13.40
2023-04-16T08:57:53.585Z,14.50
2023-04-16T09:00:21.228Z,13.77
2023-04-16T09:02:50.217Z,14.70
2023-04-16T09:05:17.912Z,12.98
2023-04-16T09:07:48.420Z,14.55
2023-04-16T09:10:16.416Z,13.32
2023-04-16T09:12:43.723Z,12.43
2023-04-16T09:15:14.110Z,10.68
2023-04-16T09:17:41.014Z,11.73
2023-04-16T09:20:10.872Z,11.05
2023-04-16T09:22:42.559Z,13.73
2023-04-16T09:25:10.312Z,11.88
2023-04-16T09:27:37.455Z,11.07
2023-04-16T09:30:25.537Z,12.18
2023-04-16T09:33:11.467Z,13.70
2023-04-16T09:35:49.502Z,12.05
2023-04-16T09:38:16.565Z,10.70
2023-04-16T09:40:44.003Z,13.02
2023-04-16T09:43:18.464Z,12.98
2023-04-16T09:45:56.641Z,11.50
2023-04-16T09:48:31.069Z,12.95
2023-04-16T09:50:59.383Z,11.52
2023-04-16T09:53:28.247Z,12.20
2023-04-16T09:56:02.290Z,12.10
2023-04-16T09:58:29.765Z,10.82
2023-04-16T10:01:10.819Z,10.05
2023-04-16T10:03:39.801Z,9.43
2023-04-16T10:06:07.944Z,10.73
2023-04-16T10:08:34.820Z,9.77
2023-04-16T10:11:02.624Z,9.48
2023-04-16T10:13:31.138Z,9.50
2023-04-16T10:15:58.768Z,11.32
2023-04-16T10:18:25.755Z,9.65
2023-04-16T10:20:52.836Z,9.68
2023-04-16T10:23:22.103Z,10.93
2023-04-16T10:25:56.407Z,10.75
2023-04-16T10:28:24.907Z,8.65
2023-04-16T10:30:53.669Z,9.68
2023-04-16T10:33:30.330Z,9.52
2023-04-16T10:36:22.567Z,9.68
2023-04-16T10:38:53.430Z,8.80
2023-04-16T10:41:21.107Z,11.02
2023-04-16T10:43:49.557Z,8.90
2023-04-16T10:46:19.369Z,10.25
2023-04-16T10:48:50.190Z,9.65
2023-04-16T10:51:29.817Z,9.00
2023-04-16T10:53:58.468Z,9.55
2023-04-16T10:56:30.493Z,8.55
2023-04-16T10:58:57.535Z,9.32
2023-04-16T11:01:36.031Z,10.98
2023-04-16T11:04:21.564Z,8.23
2023-04-16T11:07:19.396Z,8.77
2023-04-16T11:10:02.231Z,9.68
2023-04-16T11:12:44.714Z,9.65
2023-04-16T11:15:13.479Z,10.98
2023-04-16T11:17:43.339Z,11.18
2023-04-16T11:20:19.542Z,11.00
2023-04-16T11:22:54.879Z,10.23
2023-04-16T11:25:24.786Z,9.98
2023-04-16T11:27:55.584Z,12.13
2023-04-16T11:30:34.220Z,11.48
2023-04-16T11:33:05.746Z,11.18
2023-04-16T11:35:32.645Z,10.88
2023-04-16T11:37:59.538Z,10.63
2023-04-16T11:40:30.810Z,10.43
2023-04-16T11:43:21.882Z,11.23
2023-04-16T11:46:16.168Z,12.20
2023-04-16T11:48:48.039Z,11.70
2023-04-16T11:51:15.072Z,11.93
2023-04-16T11:53:53.200Z,12.23
2023-04-16T11:56:30.684Z,10.85
2023-04-16T11:59:15.467Z,13.80
2023-04-16T12:01:46.526Z,11.00
2023-04-16T12:04:18.805Z,11.88
2023-04-16T12:07:08.969Z,10.93
2023-04-16T12:09:39.522Z,11.52
2023-04-16T12:12:31.466Z,11.35
2023-04-16T12:15:05.560Z,12.63
2023-04-16T12:17:33.695Z,12.02
2023-04-16T12:20:07.079Z,13.93
2023-04-16T12:22:38.931Z,14.82
2023-04-16T12:25:08.152Z,13.27
2023-04-16T12:27:47.023Z,12.27
2023-04-16T12:30:19.427Z,12.63
2023-04-16T12:32:51.630Z,12.18
2023-04-16T12:35:32.955Z,11.63
2023-04-16T12:38:00.300Z,12.73
2023-04-16T12:40:27.578Z,14.38
2023-04-16T12:42:54.916Z,14.32
2023-04-16T12:45:22.901Z,13.43
2023-04-16T12:47:50.627Z,14.73
2023-04-16T12:50:17.809Z,14.60
2023-04-16T12:52:44.904Z,16.27
2023-04-16T12:55:12.491Z,16.00
2023-04-16T12:57:39.374Z,14.05
2023-04-16T13:00:08.504Z,15.07
2023-04-16T13:02:35.552Z,14.15
2023-04-16T13:05:02.769Z,13.20
2023-04-16T13:07:32.121Z,14.57
2023-04-16T13:09:59.356Z,13.70
2023-04-16T13:12:27.116Z,13.50
2023-04-16T13:14:55.263Z,14.95
2023-04-16T13:17:22.448Z,13.75
2023-04-16T13:19:49.322Z,11.63
2023-04-16T13:22:16.427Z,14.68
2023-04-16T13:24:44.607Z,13.95
2023-04-16T13:27:12.529Z,11.27
2023-04-16T13:29:39.273Z,14.15
2023-04-16T13:32:06.396Z,14.82
2023-04-16T13:34:33.495Z,13.05
2023-04-16T13:37:02.544Z,13.65
2023-04-16T13:39:29.350Z,12.57
2023-04-16T13:41:56.219Z,14.30
2023-04-16T13:44:22.987Z,14.30
2023-04-16T13:46:50.061Z,14.02
2023-04-16T13:49:16.947Z,13.32
2023-04-16T13:51:46.677Z,13.40
2023-04-16T13:54:13.476Z,13.63
2023-04-16T13:56:40.901Z,13.13
2023-04-16T13:59:08.406Z,14.63
2023-04-16T14:01:35.786Z,11.75
2023-04-16T14:04:06.820Z,13.75
2023-04-16T14:06:36.893Z,14.48
2023-04-16T14:09:04.367Z,12.02
2023-04-16T14:11:31.637Z,14.40
2023-04-16T14:13:58.504Z,13.82
2023-04-16T14:16:25.685Z,14.23
2023-04-16T14:18:52.552Z,17.63
2023-04-16T14:21:19.855Z,13.20
2023-04-16T14:23:46.804Z,15.48
2023-04-16T14:26:14.346Z,11.48
2023-04-16T14:28:41.801Z,11.95
2023-04-16T14:31:08.852Z,12.55
2023-04-16T14:33:35.727Z,13.60
2023-04-16T14:36:03.527Z,13.70
2023-04-16T14:38:31.215Z,15.35
2023-04-16T14:40:58.431Z,14.02
2023-04-16T14:43:26.091Z,15.80
2023-04-16T14:45:53.153Z,12.95
2023-04-16T14:48:20.283Z,11.73
2023-04-16T14:50:52.693Z,12.93
2023-04-16T14:53:26.900Z,11.43
2023-04-16T14:56:01.167Z,12.63
2023-04-16T14:58:31.453Z,12.63
2023-04-16T15:01:01.410Z,12.38
2023-04-16T15:03:39.303Z,11.83
2023-04-16T15:06:06.224Z,11.30
2023-04-16T15:08:33.041Z,12.35
2023-04-16T15:10:59.993Z,11.80
2023-04-16T15:13:33.597Z,12.85
2023-04-16T15:16:07.144Z,11.43
2023-04-16T15:18:34.233Z,13.88
2023-04-16T15:21:01.729Z,11.50
2023-04-16T15:23:29.020Z,11.25
2023-04-16T15:25:55.784Z,12.88
2023-04-16T15:28:23.280Z,14.18
2023-04-16T15:30:51.950Z,11.63
2023-04-16T15:33:22.795Z,10.82
2023-04-16T15:35:51.501Z,12.35
2023-04-16T15:38:21.078Z,11.50
2023-04-16T15:40:48.064Z,10.93
2023-04-16T15:43:15.655Z,11.48
2023-04-16T15:45:42.399Z,11.55
2023-04-16T15:48:09.374Z,13.15
2023-04-16T15:50:36.557Z,9.85
2023-04-16T15:53:03.649Z,11.10
2023-04-16T15:55:30.521Z,11.05
2023-04-16T15:57:57.309Z,11.43
2023-04-16T16:00:24.121Z,11.57
2023-04-16T16:02:51.152Z,9.38
2023-04-16T16:05:18.640Z,9.88
2023-04-16T16:07:45.642Z,10.02
2023-04-16T16:10:13.258Z,11.38
2023-04-16T16:12:40.749Z,11.90
2023-04-16T16:15:08.115Z,10.98
2023-04-16T16:17:35.158Z,10.85
2023-04-16T16:20:02.630Z,10.23
2023-04-16T16:22:29.919Z,10.65
2023-04-16T16:24:57.832Z,9.48
2023-04-16T16:27:24.697Z,11.20
2023-04-16T16:29:51.688Z,10.85
2023-04-16T16:32:18.567Z,10.38
2023-04-16T16:34:45.526Z,10.57
2023-04-16T16:37:12.358Z,10.68
2023-04-16T16:39:43.342Z,10.80
2023-04-16T16:42:19.275Z,11.95
2023-04-16T16:44:49.060Z,13.68
2023-04-16T16:47:19.044Z,12.40
2023-04-16T16:49:46.104Z,11.13
2023-04-16T16:52:12.966Z,12.77
2023-04-16T16:54:39.849Z,12.45
2023-04-16T16:57:06.941Z,12.13
2023-04-16T16:59:33.864Z,13.25
2023-04-16T17:02:00.993Z,11.63
2023-04-16T17:04:27.921Z,12.32
2023-04-16T17:06:54.773Z,13.43
2023-04-16T17:09:22.234Z,13.25
2023-04-16T17:11:48.977Z,13.68
2023-04-16T17:14:16.005Z,13.07
2023-04-16T17:16:42.808Z,15.55
2023-04-16T17:19:10.184Z,13.88
2023-04-16T17:21:37.113Z,12.80
2023-04-16T17:24:04.264Z,12.75
2023-04-16T17:26:31.804Z,15.93
2023-04-16T17:28:59.356Z,13.27
2023-04-16T17:31:29.053Z,13.82
2023-04-16T17:33:55.898Z,13.63
2023-04-16T17:36:23.290Z,15.50
2023-04-16T17:38:53.556Z,15.23
2023-04-16T17:41:51.913Z,13.77
2023-04-16T17:44:28.003Z,14.82
2023-04-16T17:46:54.993Z,14.77
2023-04-16T17:49:21.826Z,16.88
2023-04-16T17:51:49.098Z,14.70
2023-04-16T17:54:15.994Z,16.30
2023-04-16T18:01:03.696Z,16.10
2023-04-16T18:03:37.748Z,15.85
2023-04-16T18:06:05.260Z,17.20
2023-04-16T18:08:32.134Z,16.08
2023-04-16T18:10:58.986Z,16.30
2023-04-16T18:13:25.849Z,18.77
2023-04-16T18:15:53.023Z,20.58
2023-04-16T18:18:21.169Z,18.65
2023-04-16T18:20:48.529Z,16.08
2023-04-16T18:23:18.789Z,18.25
2023-04-16T18:26:25.402Z,16.15
2023-04-16T18:28:53.334Z,15.02
2023-04-16T18:31:28.079Z,15.90
2023-04-16T18:34:35.327Z,16.13
2023-04-16T18:37:04.419Z,17.70
2023-04-16T18:39:33.837Z,16.58
2023-04-16T18:42:01.754Z,16.40
2023-04-16T18:44:39.948Z,19.33
2023-04-16T18:47:13.866Z,17.45
2023-04-16T18:50:12.921Z,16.55
2023-04-16T18:52:39.847Z,16.10
2023-04-16T18:55:07.223Z,14.32
2023-04-16T18:57:45.980Z,17.70
2023-04-16T19:00:19.973Z,17.17
2023-04-16T19:02:47.061Z,19.05
2023-04-16T19:05:14.094Z,19.63
2023-04-16T19:07:41.737Z,19.08
2023-04-16T19:10:09.317Z,19.48
2023-04-16T19:12:36.134Z,19.02
2023-04-16T19:15:03.053Z,20.75
2023-04-16T19:17:29.933Z,37.85
2023-04-16T19:19:56.745Z,26.33
2023-04-16T19:22:23.491Z,18.67
2023-04-16T19:24:50.279Z,19.33
2023-04-16T19:27:17.087Z,21.35
2023-04-16T19:29:45.182Z,18.75
2023-04-16T19:32:14.077Z,21.55
2023-04-16T19:34:41.089Z,22.58
2023-04-16T19:37:07.902Z,20.45
2023-04-16T19:39:34.768Z,20.85
2023-04-16T19:42:01.715Z,21.08
2023-04-16T19:44:28.610Z,19.67
2023-04-16T19:46:55.583Z,20.98
2023-04-16T19:49:22.418Z,21.45
2023-04-16T19:51:49.503Z,20.52
2023-04-16T19:54:16.597Z,19.42
2023-04-16T19:56:43.405Z,20.75
2023-04-16T19:59:10.465Z,21.05
2023-04-16T20:01:37.611Z,22.77
2023-04-16T20:04:04.828Z,21.17
2023-04-16T20:06:31.724Z,22.50
2023-04-16T20:08:58.694Z,21.70
2023-04-16T20:11:25.576Z,21.83
2023-04-16T20:13:52.373Z,20.38
2023-04-16T20:16:23.847Z,22.42
2023-04-16T20:18:54.081Z,23.40
2023-04-16T20:21:25.105Z,22.10
2023-04-16T20:26:18.867Z,18.88
2023-04-16T20:28:45.924Z,22.00
2023-04-16T20:31:13.220Z,19.73
2023-04-16T20:34:00.091Z,20.70
2023-04-16T20:36:27.828Z,21.38
2023-04-16T20:38:54.783Z,21.38
2023-04-16T20:41:22.426Z,21.30
2023-04-16T20:43:52.743Z,21.75
2023-04-16T20:46:24.160Z,20.42
2023-04-16T20:48:51.516Z,22.08
2023-04-16T20:51:18.343Z,21.33
2023-04-16T20:53:45.480Z,21.30
2023-04-16T20:56:14.722Z,22.58
2023-04-16T20:58:42.548Z,20.75
2023-04-16T21:01:09.562Z,20.30
2023-04-16T21:03:37.058Z,21.33
2023-04-16T21:06:04.277Z,22.55
2023-04-16T21:08:31.499Z,22.60
2023-04-16T21:10:58.334Z,22.80
2023-04-16T21:13:25.479Z,20.08
2023-04-16T21:15:52.618Z,22.80
2023-04-16T21:18:19.804Z,20.10
2023-04-16T21:20:46.688Z,19.17
2023-04-16T21:23:13.586Z,20.70
2023-04-16T21:25:40.951Z,17.92
2023-04-16T21:28:07.804Z,19.23
2023-04-16T21:30:34.660Z,14.75
2023-04-16T21:33:01.662Z,14.23
2023-04-16T21:35:28.483Z,11.85
2023-04-16T21:37:55.300Z,10.88
2023-04-16T21:40:22.298Z,11.23
2023-04-16T21:42:49.195Z,9.32
2023-04-16T21:45:16.189Z,9.80
2023-04-16T21:47:43.014Z,7.97
2023-04-16T21:50:10.247Z,9.30
2023-04-16T21:52:40.699Z,8.45
2023-04-16T21:55:09.395Z,8.35
2023-04-16T21:57:36.149Z,7.90
2023-04-16T22:00:06.793Z,8.63
2023-04-16T22:02:34.028Z,9.57
2023-04-16T22:05:01.335Z,8.68
2023-04-16T22:07:28.898Z,9.00
2023-04-16T22:09:56.313Z,9.48
2023-04-16T22:12:23.130Z,10.88
2023-04-16T22:17:23.633Z,11.48
2023-04-16T22:19:50.848Z,9.85
2023-04-16T22:22:18.039Z,11.55
2023-04-16T22:24:45.513Z,10.75
2023-04-16T22:27:12.339Z,10.98
2023-04-16T22:29:39.109Z,12.30
2023-04-16T22:32:06.368Z,10.25
2023-04-16T22:34:33.257Z,9.00
2023-04-16T22:37:02.806Z,9.90
2023-04-16T22:39:30.815Z,8.38
2023-04-16T22:41:57.716Z,7.88
2023-04-16T22:44:24.470Z,9.38
2023-04-16T22:46:51.372Z,9.38
2023-04-16T22:49:18.272Z,11.35
2023-04-16T22:51:45.160Z,11.38
2023-04-16T22:54:13.628Z,10.57
2023-04-16T22:56:41.254Z,10.43
2023-04-16T22:59:08.225Z,9.85
2023-04-16T23:01:35.624Z,12.38
2023-04-16T23:04:02.540Z,11.45
2023-04-16T23:06:29.381Z,11.32
2023-04-16T23:08:56.193Z,11.77
2023-04-16T23:11:23.365Z,12.48
2023-04-16T23:13:50.135Z,12.38
2023-04-16T23:16:16.959Z,14.75
2023-04-16T23:18:43.830Z,14.93
2023-04-16T23:21:10.952Z,14.00
2023-04-16T23:23:37.740Z,12.05
2023-04-16T23:26:04.837Z,15.07
2023-04-16T23:28:31.628Z,15.40
2023-04-16T23:30:58.520Z,14.45
2023-04-16T23:33:25.330Z,12.55
2023-04-16T23:35:52.154Z,11.60
2023-04-16T23:38:18.953Z,15.13
2023-04-16T23:40:45.904Z,13.52
2023-04-16T23:43:12.812Z,14.57
2023-04-16T23:45:39.787Z,13.55
2023-04-16T23:48:07.064Z,13.93
2023-04-16T23:50:34.022Z,12.50
2023-04-16T23:53:00.802Z,13.75
2023-04-16T23:55:27.726Z,14.95
2023-04-16T23:57:54.690Z,13.23
